sensor_id;sensor_type;location;lat;lon;timestamp;pressure;altitude;pressure_sealevel;temperature;humidity
39891;BME280;25564;53.312;9.790;2023-03-21T00:00:30;100840.13;;;8.59;91.61
39891;BME280;25564;53.312;9.790;2023-03-21T00:03:02;100827.84;;;8.47;91.64
39891;BME280;25564;53.312;9.790;2023-03-21T00:05:33;100763.72;;;8.17;91.99
39891;BME280;25564;53.312;9.790;2023-03-21T00:08:05;100794.44;;;8.37;92.63
39891;BME280;25564;53.312;9.790;2023-03-21T00:10:37;100858.53;;;8.71;92.42
39891;BME280;25564;53.312;9.790;2023-03-21T00:13:14;100842.72;;;8.65;92.48
39891;BME280;25564;53.312;9.790;2023-03-21T00:15:46;100851.50;;;8.70;92.57
39891;BME280;25564;53.312;9.790;2023-03-21T00:18:44;100841.88;;;8.58;92.82
39891;BME280;25564;53.312;9.790;2023-03-21T00:21:19;100746.16;;;8.09;92.42
39891;BME280;25564;53.312;9.790;2023-03-21T00:24:11;100863.00;;;8.64;92.91
39891;BME280;25564;53.312;9.790;2023-03-21T00:26:43;100798.84;;;8.36;93.07
39891;BME280;25564;53.312;9.790;2023-03-21T00:29:15;100746.16;;;8.09;93.54
39891;BME280;25564;53.312;9.790;2023-03-21T00:31:47;100738.25;;;8.04;93.34
39891;BME280;25564;53.312;9.790;2023-03-21T00:34:18;100819.88;;;8.51;93.79
39891;BME280;25564;53.312;9.790;2023-03-21T00:37:07;100814.63;;;8.48;93.33
39891;BME280;25564;53.312;9.790;2023-03-21T00:39:39;100806.69;;;8.47;93.80
39891;BME280;25564;53.312;9.790;2023-03-21T00:42:10;100821.63;;;8.56;93.94
39891;BME280;25564;53.312;9.790;2023-03-21T00:44:42;100785.63;;;8.35;93.82
39891;BME280;25564;53.312;9.790;2023-03-21T00:47:15;100811.94;;;8.53;93.69
39891;BME280;25564;53.312;9.790;2023-03-21T00:49:46;100810.16;;;8.53;94.38
39891;BME280;25564;53.312;9.790;2023-03-21T00:52:17;100818.06;;;8.60;94.21
39891;BME280;25564;53.312;9.790;2023-03-21T00:55:14;100766.28;;;8.28;94.26
39891;BME280;25564;53.312;9.790;2023-03-21T00:57:45;100724.19;;;8.04;94.07
39891;BME280;25564;53.312;9.790;2023-03-21T01:00:26;100804.03;;;8.50;94.74
39891;BME280;25564;53.312;9.790;2023-03-21T01:02:59;100802.25;;;8.50;94.69
39891;BME280;25564;53.312;9.790;2023-03-21T01:05:53;100791.72;;;8.47;94.91
39891;BME280;25564;53.312;9.790;2023-03-21T01:08:37;100743.44;;;8.21;94.55
39891;BME280;25564;53.312;9.790;2023-03-21T01:11:25;100818.03;;;8.63;95.10
39891;BME280;25564;53.312;9.790;2023-03-21T01:13:57;100794.31;;;8.52;95.23
39891;BME280;25564;53.312;9.790;2023-03-21T01:16:50;100722.31;;;8.16;95.26
39891;BME280;25564;53.312;9.790;2023-03-21T01:19:24;100814.50;;;8.64;94.91
39891;BME280;25564;53.312;9.790;2023-03-21T01:22:14;100717.13;;;8.06;95.16
39891;BME280;25564;53.312;9.790;2023-03-21T01:24:46;100811.94;;;8.55;95.37
39891;BME280;25564;53.312;9.790;2023-03-21T01:27:27;100799.59;;;8.53;95.42
39891;BME280;25564;53.312;9.790;2023-03-21T01:29:58;100758.34;;;8.31;95.55
39891;BME280;25564;53.312;9.790;2023-03-21T01:32:30;100797.81;;;8.54;95.57
39891;BME280;25564;53.312;9.790;2023-03-21T01:35:01;100792.56;;;8.52;95.36
39891;BME280;25564;53.312;9.790;2023-03-21T01:37:34;100795.16;;;8.59;95.36
39891;BME280;25564;53.312;9.790;2023-03-21T01:40:05;100797.72;;;8.68;95.71
39891;BME280;25564;53.312;9.790;2023-03-21T01:42:38;100752.06;;;8.43;95.18
39891;BME280;25564;53.312;9.790;2023-03-21T01:48:19;100797.69;;;8.69;95.76
39891;BME280;25564;53.312;9.790;2023-03-21T01:50:51;100809.94;;;8.82;95.63
39891;BME280;25564;53.312;9.790;2023-03-21T01:53:26;100767.78;;;8.61;96.08
39891;BME280;25564;53.312;9.790;2023-03-21T01:56:03;100779.19;;;8.68;95.85
39891;BME280;25564;53.312;9.790;2023-03-21T01:58:37;100789.75;;;8.71;95.68
39891;BME280;25564;53.312;9.790;2023-03-21T02:01:10;100745.84;;;8.48;95.92
39891;BME280;25564;53.312;9.790;2023-03-21T02:03:44;100691.41;;;8.26;95.76
39891;BME280;25564;53.312;9.790;2023-03-21T02:06:32;100703.66;;;8.36;95.82
39891;BME280;25564;53.312;9.790;2023-03-21T02:09:10;100747.53;;;8.59;96.02
39891;BME280;25564;53.312;9.790;2023-03-21T02:11:42;100764.19;;;8.70;96.26
39891;BME280;25564;53.312;9.790;2023-03-21T02:14:17;100723.78;;;8.52;96.03
39891;BME280;25564;53.312;9.790;2023-03-21T02:17:18;100762.38;;;8.75;96.69
39891;BME280;25564;53.312;9.790;2023-03-21T02:26:01;100782.56;;;8.87;96.61
39891;BME280;25564;53.312;9.790;2023-03-21T02:28:48;100760.63;;;8.72;96.57
39891;BME280;25564;53.312;9.790;2023-03-21T02:31:25;100753.56;;;8.73;96.58
39891;BME280;25564;53.312;9.790;2023-03-21T02:39:55;100771.06;;;8.89;97.01
39891;BME280;25564;53.312;9.790;2023-03-21T02:42:43;100762.28;;;8.84;96.97
39891;BME280;25564;53.312;9.790;2023-03-21T02:45:27;100767.56;;;8.85;97.29
39891;BME280;25564;53.312;9.790;2023-03-21T02:48:08;100764.94;;;8.84;96.97
39891;BME280;25564;53.312;9.790;2023-03-21T02:50:58;100767.50;;;8.92;97.01
39891;BME280;25564;53.312;9.790;2023-03-21T02:53:33;100692.03;;;8.52;97.13
39891;BME280;25564;53.312;9.790;2023-03-21T02:56:08;100736.81;;;8.74;97.35
39891;BME280;25564;53.312;9.790;2023-03-21T02:58:41;100685.06;;;8.44;97.25
39891;BME280;25564;53.312;9.790;2023-03-21T03:01:13;100736.78;;;8.75;97.70
39891;BME280;25564;53.312;9.790;2023-03-21T03:03:44;100719.28;;;8.64;97.49
39891;BME280;25564;53.312;9.790;2023-03-21T03:06:21;100737.63;;;8.79;97.45
39891;BME280;25564;53.312;9.790;2023-03-21T03:09:14;100756.94;;;8.90;97.50
39891;BME280;25564;53.312;9.790;2023-03-21T03:11:50;100750.78;;;8.88;97.89
39891;BME280;25564;53.312;9.790;2023-03-21T03:14:38;100756.91;;;8.93;97.61
39891;BME280;25564;53.312;9.790;2023-03-21T03:18:18;100748.13;;;8.90;97.71
39891;BME280;25564;53.312;9.790;2023-03-21T03:23:28;100722.66;;;8.79;97.87
39891;BME280;25564;53.312;9.790;2023-03-21T03:26:08;100738.41;;;8.90;97.92
39891;BME280;25564;53.312;9.790;2023-03-21T03:28:49;100744.53;;;8.97;98.22
39891;BME280;25564;53.312;9.790;2023-03-21T03:31:25;100678.75;;;8.59;97.64
39891;BME280;25564;53.312;9.790;2023-03-21T03:34:11;100722.59;;;8.84;98.13
39891;BME280;25564;53.312;9.790;2023-03-21T03:36:45;100739.28;;;8.91;97.80
39891;BME280;25564;53.312;9.790;2023-03-21T03:39:29;100741.88;;;8.95;98.18
39891;BME280;25564;53.312;9.790;2023-03-21T03:42:13;100736.63;;;8.92;98.24
39891;BME280;25564;53.312;9.790;2023-03-21T03:44:59;100713.91;;;8.73;98.16
39891;BME280;25564;53.312;9.790;2023-03-21T03:47:41;100723.41;;;8.91;98.63
39891;BME280;25564;53.312;9.790;2023-03-21T03:50:39;100713.81;;;8.82;98.21
39891;BME280;25564;53.312;9.790;2023-03-21T03:53:34;100737.44;;;8.99;98.47
39891;BME280;25564;53.312;9.790;2023-03-21T03:56:09;100710.25;;;8.83;98.35
39891;BME280;25564;53.312;9.790;2023-03-21T03:58:41;100728.72;;;8.89;98.40
39891;BME280;25564;53.312;9.790;2023-03-21T04:01:16;100643.69;;;8.40;98.21
39891;BME280;25564;53.312;9.790;2023-03-21T04:03:48;100716.41;;;8.87;98.86
39891;BME280;25564;53.312;9.790;2023-03-21T04:06:31;100727.75;;;8.96;98.47
39891;BME280;25564;53.312;9.790;2023-03-21T04:09:02;100652.34;;;8.56;98.32
39891;BME280;25564;53.312;9.790;2023-03-21T04:11:50;100725.13;;;8.96;98.87
39891;BME280;25564;53.312;9.790;2023-03-21T04:14:22;100733.88;;;9.03;99.09
39891;BME280;25564;53.312;9.790;2023-03-21T04:16:58;100709.31;;;8.90;98.66
39891;BME280;25564;53.312;9.790;2023-03-21T04:19:30;100657.56;;;8.62;99.07
39891;BME280;25564;53.312;9.790;2023-03-21T04:22:01;100713.69;;;8.91;98.56
39891;BME280;25564;53.312;9.790;2023-03-21T04:24:33;100715.44;;;8.94;99.46
39891;BME280;25564;53.312;9.790;2023-03-21T04:27:07;100722.47;;;8.96;98.71
39891;BME280;25564;53.312;9.790;2023-03-21T04:29:39;100702.28;;;8.86;98.83
39891;BME280;25564;53.312;9.790;2023-03-21T04:32:11;100706.72;;;8.84;99.11
39891;BME280;25564;53.312;9.790;2023-03-21T04:34:47;100696.09;;;8.87;99.55
39891;BME280;25564;53.312;9.790;2023-03-21T04:37:21;100725.91;;;9.04;99.42
39891;BME280;25564;53.312;9.790;2023-03-21T04:39:53;100702.25;;;8.91;99.24
39891;BME280;25564;53.312;9.790;2023-03-21T04:42:25;100721.50;;;9.03;99.44
39891;BME280;25564;53.312;9.790;2023-03-21T04:44:56;100717.97;;;9.03;99.36
39891;BME280;25564;53.312;9.790;2023-03-21T04:47:28;100705.66;;;9.00;99.44
39891;BME280;25564;53.312;9.790;2023-03-21T04:49:59;100713.56;;;9.03;99.28
39891;BME280;25564;53.312;9.790;2023-03-21T04:52:31;100713.56;;;9.03;99.27
39891;BME280;25564;53.312;9.790;2023-03-21T04:55:02;100689.00;;;8.92;99.54
39891;BME280;25564;53.312;9.790;2023-03-21T04:57:35;100709.16;;;9.04;99.58
39891;BME280;25564;53.312;9.790;2023-03-21T05:00:08;100694.25;;;8.95;99.42
39891;BME280;25564;53.312;9.790;2023-03-21T05:02:40;100705.66;;;9.00;99.75
39891;BME280;25564;53.312;9.790;2023-03-21T05:05:12;100718.81;;;9.06;99.62
39891;BME280;25564;53.312;9.790;2023-03-21T05:07:43;100710.06;;;9.01;99.77
39891;BME280;25564;53.312;9.790;2023-03-21T05:10:15;100722.31;;;9.10;99.94
39891;BME280;25564;53.312;9.790;2023-03-21T05:12:46;100631.13;;;8.62;99.87
39891;BME280;25564;53.312;9.790;2023-03-21T05:15:18;100625.03;;;8.55;100.00
39891;BME280;25564;53.312;9.790;2023-03-21T05:17:49;100703.88;;;9.01;99.80
39891;BME280;25564;53.312;9.790;2023-03-21T05:20:24;100707.38;;;9.06;100.00
39891;BME280;25564;53.312;9.790;2023-03-21T05:22:55;100711.75;;;9.08;99.70
39891;BME280;25564;53.312;9.790;2023-03-21T05:25:26;100703.88;;;9.02;100.00
39891;BME280;25564;53.312;9.790;2023-03-21T05:28:06;100688.94;;;8.97;100.00
39891;BME280;25564;53.312;9.790;2023-03-21T05:30:38;100700.38;;;8.99;100.00
39891;BME280;25564;53.312;9.790;2023-03-21T05:33:09;100665.25;;;8.84;100.00
39891;BME280;25564;53.312;9.790;2023-03-21T05:35:41;100694.16;;;9.04;99.96
39891;BME280;25564;53.312;9.790;2023-03-21T05:38:12;100693.25;;;9.05;100.00
39891;BME280;25564;53.312;9.790;2023-03-21T05:40:48;100618.69;;;8.70;100.00
39891;BME280;25564;53.312;9.790;2023-03-21T05:43:20;100701.91;;;9.20;100.00
39891;BME280;25564;53.312;9.790;2023-03-21T05:45:51;100690.56;;;9.08;100.00
39891;BME280;25564;53.312;9.790;2023-03-21T05:48:23;100685.28;;;9.08;100.00
39891;BME280;25564;53.312;9.790;2023-03-21T05:50:54;100697.53;;;9.17;100.00
39891;BME280;25564;53.312;9.790;2023-03-21T05:53:26;100694.00;;;9.15;100.00
39891;BME280;25564;53.312;9.790;2023-03-21T05:55:57;100679.94;;;9.11;100.00
39891;BME280;25564;53.312;9.790;2023-03-21T05:58:29;100685.16;;;9.17;100.00
39891;BME280;25564;53.312;9.790;2023-03-21T06:01:00;100637.03;;;8.85;100.00
39891;BME280;25564;53.312;9.790;2023-03-21T06:03:32;100657.16;;;8.98;100.00
39891;BME280;25564;53.312;9.790;2023-03-21T06:06:03;100701.78;;;9.29;100.00
39891;BME280;25564;53.312;9.790;2023-03-21T06:08:35;100682.50;;;9.17;100.00
39891;BME280;25564;53.312;9.790;2023-03-21T06:11:45;100707.06;;;9.32;100.00
39891;BME280;25564;53.312;9.790;2023-03-21T06:14:07;100614.19;;;8.78;100.00
39891;BME280;25564;53.312;9.790;2023-03-21T06:16:38;100689.50;;;9.25;100.00
39891;BME280;25564;53.312;9.790;2023-03-21T06:19:10;100655.28;;;9.06;100.00
39891;BME280;25564;53.312;9.790;2023-03-21T06:21:42;100629.03;;;8.90;100.00
39891;BME280;25564;53.312;9.790;2023-03-21T06:24:13;100679.88;;;9.17;100.00
39891;BME280;25564;53.312;9.790;2023-03-21T06:26:44;100636.81;;;9.02;100.00
39891;BME280;25564;53.312;9.790;2023-03-21T06:29:16;100671.81;;;9.27;100.00
39891;BME280;25564;53.312;9.790;2023-03-21T06:31:47;100676.22;;;9.28;100.00
39891;BME280;25564;53.312;9.790;2023-03-21T06:34:19;100689.22;;;9.43;100.00
39891;BME280;25564;53.312;9.790;2023-03-21T06:36:51;100695.25;;;9.54;100.00
39891;BME280;25564;53.312;9.790;2023-03-21T06:39:25;100635.56;;;9.32;100.00
39891;BME280;25564;53.312;9.790;2023-03-21T06:41:57;100672.25;;;9.56;100.00
39891;BME280;25564;53.312;9.790;2023-03-21T06:44:30;100681.84;;;9.65;100.00
39891;BME280;25564;53.312;9.790;2023-03-21T06:47:01;100696.75;;;9.73;100.00
39891;BME280;25564;53.312;9.790;2023-03-21T06:49:33;100670.38;;;9.64;100.00
39891;BME280;25564;53.312;9.790;2023-03-21T06:52:04;100698.41;;;9.80;100.00
39891;BME280;25564;53.312;9.790;2023-03-21T06:54:36;100694.97;;;9.74;100.00
39891;BME280;25564;53.312;9.790;2023-03-21T06:57:08;100697.50;;;9.81;100.00
39891;BME280;25564;53.312;9.790;2023-03-21T06:59:39;100695.00;;;9.72;100.00
39891;BME280;25564;53.312;9.790;2023-03-21T07:02:12;100694.06;;;9.75;100.00
39891;BME280;25564;53.312;9.790;2023-03-21T07:04:43;100689.75;;;9.68;100.00
39891;BME280;25564;53.312;9.790;2023-03-21T07:07:15;100686.22;;;9.67;100.00
39891;BME280;25564;53.312;9.790;2023-03-21T07:09:46;100687.13;;;9.66;100.00
39891;BME280;25564;53.312;9.790;2023-03-21T07:12:19;100659.91;;;9.55;100.00
39891;BME280;25564;53.312;9.790;2023-03-21T07:14:51;100681.81;;;9.68;100.00
39891;BME280;25564;53.312;9.790;2023-03-21T07:17:22;100686.28;;;9.64;100.00
39891;BME280;25564;53.312;9.790;2023-03-21T07:19:53;100681.03;;;9.61;100.00
39891;BME280;25564;53.312;9.790;2023-03-21T07:22:26;100688.03;;;9.65;100.00
39891;BME280;25564;53.312;9.790;2023-03-21T07:24:57;100693.28;;;9.68;100.00
39891;BME280;25564;53.312;9.790;2023-03-21T07:27:35;100596.94;;;9.15;100.00
39891;BME280;25564;53.312;9.790;2023-03-21T07:30:10;100691.53;;;9.67;100.00
39891;BME280;25564;53.312;9.790;2023-03-21T07:32:42;100631.97;;;9.36;100.00
39891;BME280;25564;53.312;9.790;2023-03-21T07:35:17;100652.91;;;9.51;100.00
39891;BME280;25564;53.312;9.790;2023-03-21T07:37:48;100690.56;;;9.73;100.00
39891;BME280;25564;53.312;9.790;2023-03-21T07:40:20;100615.22;;;9.34;100.00
39891;BME280;25564;53.312;9.790;2023-03-21T07:42:51;100696.56;;;9.86;100.00
39891;BME280;25564;53.312;9.790;2023-03-21T07:45:23;100641.31;;;9.58;100.00
39891;BME280;25564;53.312;9.790;2023-03-21T07:47:57;100628.97;;;9.57;100.00
39891;BME280;25564;53.312;9.790;2023-03-21T07:50:28;100668.22;;;9.91;100.00
39891;BME280;25564;53.312;9.790;2023-03-21T07:53:00;100608.66;;;9.58;100.00
39891;BME280;25564;53.312;9.790;2023-03-21T07:55:32;100690.88;;;10.10;100.00
39891;BME280;25564;53.312;9.790;2023-03-21T07:58:07;100605.81;;;9.70;100.00
39891;BME280;25564;53.312;9.790;2023-03-21T08:00:38;100693.41;;;10.18;100.00
39891;BME280;25564;53.312;9.790;2023-03-21T08:03:10;100695.97;;;10.25;100.00
39891;BME280;25564;53.312;9.790;2023-03-21T08:05:42;100618.06;;;9.78;100.00
39891;BME280;25564;53.312;9.790;2023-03-21T08:08:14;100689.91;;;10.15;100.00
39891;BME280;25564;53.312;9.790;2023-03-21T08:10:46;100677.56;;;10.14;100.00
39891;BME280;25564;53.312;9.790;2023-03-21T08:13:19;100682.84;;;10.16;100.00
39891;BME280;25564;53.312;9.790;2023-03-21T08:15:50;100690.75;;;10.19;100.00
39891;BME280;25564;53.312;9.790;2023-03-21T08:18:22;100674.81;;;10.22;100.00
39891;BME280;25564;53.312;9.790;2023-03-21T08:20:55;100692.38;;;10.29;100.00
39891;BME280;25564;53.312;9.790;2023-03-21T08:23:27;100676.63;;;10.17;100.00
39891;BME280;25564;53.312;9.790;2023-03-21T08:25:58;100703.91;;;10.27;100.00
39891;BME280;25564;53.312;9.790;2023-03-21T08:28:30;100703.81;;;10.33;100.00
39891;BME280;25564;53.312;9.790;2023-03-21T08:31:08;100652.00;;;10.09;100.00
39891;BME280;25564;53.312;9.790;2023-03-21T08:33:40;100685.25;;;10.31;100.00
39891;BME280;25564;53.312;9.790;2023-03-21T08:36:12;100696.47;;;10.45;100.00
39891;BME280;25564;53.312;9.790;2023-03-21T08:38:44;100665.75;;;10.35;100.00
39891;BME280;25564;53.312;9.790;2023-03-21T08:41:16;100677.09;;;10.42;100.00
39891;BME280;25564;53.312;9.790;2023-03-21T08:43:49;100590.94;;;10.13;100.00
39891;BME280;25564;53.312;9.790;2023-03-21T08:46:21;100631.91;;;10.46;100.00
39891;BME280;25564;53.312;9.790;2023-03-21T08:48:53;100688.66;;;10.87;100.00
39891;BME280;25564;53.312;9.790;2023-03-21T08:51:25;100680.72;;;10.86;100.00
39891;BME280;25564;53.312;9.790;2023-03-21T08:53:57;100670.97;;;10.86;100.00
39891;BME280;25564;53.312;9.790;2023-03-21T08:56:28;100675.19;;;10.96;100.00
39891;BME280;25564;53.312;9.790;2023-03-21T08:58:59;100602.50;;;10.59;100.00
39891;BME280;25564;53.312;9.790;2023-03-21T09:01:33;100659.28;;;10.95;100.00
39891;BME280;25564;53.312;9.790;2023-03-21T09:04:04;100690.00;;;11.08;100.00
39891;BME280;25564;53.312;9.790;2023-03-21T09:06:39;100679.44;;;11.05;100.00
39891;BME280;25564;53.312;9.790;2023-03-21T09:09:21;100593.78;;;10.52;100.00
39891;BME280;25564;53.312;9.790;2023-03-21T09:11:53;100664.63;;;10.93;100.00
39891;BME280;25564;53.312;9.790;2023-03-21T09:14:25;100666.22;;;11.02;100.00
39891;BME280;25564;53.312;9.790;2023-03-21T09:16:59;100666.53;;;10.87;100.00
39891;BME280;25564;53.312;9.790;2023-03-21T09:19:31;100610.31;;;10.66;100.00
39891;BME280;25564;53.312;9.790;2023-03-21T09:22:04;100589.16;;;10.62;100.00
39891;BME280;25564;53.312;9.790;2023-03-21T09:24:36;100677.44;;;11.16;100.00
39891;BME280;25564;53.312;9.790;2023-03-21T09:27:08;100609.03;;;10.86;100.00
39891;BME280;25564;53.312;9.790;2023-03-21T09:29:40;100684.25;;;11.29;100.00
39891;BME280;25564;53.312;9.790;2023-03-21T09:32:15;100671.88;;;11.28;100.00
39891;BME280;25564;53.312;9.790;2023-03-21T09:34:48;100674.50;;;11.30;100.00
39891;BME280;25564;53.312;9.790;2023-03-21T09:37:19;100669.22;;;11.28;100.00
39891;BME280;25564;53.312;9.790;2023-03-21T09:39:51;100599.28;;;10.86;100.00
39891;BME280;25564;53.312;9.790;2023-03-21T09:42:51;100623.78;;;11.00;100.00
39891;BME280;25564;53.312;9.790;2023-03-21T09:45:36;100664.03;;;11.22;100.00
39891;BME280;25564;53.312;9.790;2023-03-21T09:48:34;100667.56;;;11.23;100.00
39891;BME280;25564;53.312;9.790;2023-03-21T09:51:27;100597.66;;;10.79;100.00
39891;BME280;25564;53.312;9.790;2023-03-21T09:54:05;100647.31;;;11.17;100.00
39891;BME280;25564;53.312;9.790;2023-03-21T09:56:39;100630.66;;;11.10;100.00
39891;BME280;25564;53.312;9.790;2023-03-21T09:59:20;100651.50;;;11.29;100.00
39891;BME280;25564;53.312;9.790;2023-03-21T10:01:53;100658.47;;;11.34;100.00
39891;BME280;25564;53.312;9.790;2023-03-21T10:04:25;100632.25;;;11.18;100.00
39891;BME280;25564;53.312;9.790;2023-03-21T10:06:59;100661.88;;;11.41;100.00
39891;BME280;25564;53.312;9.790;2023-03-21T10:09:32;100660.19;;;11.37;100.00
39891;BME280;25564;53.312;9.790;2023-03-21T10:12:18;100637.50;;;11.21;100.00
39891;BME280;25564;53.312;9.790;2023-03-21T10:14:53;100635.72;;;11.21;100.00
39891;BME280;25564;53.312;9.790;2023-03-21T10:17:32;100655.75;;;11.37;100.00
39891;BME280;25564;53.312;9.790;2023-03-21T10:20:14;100666.91;;;11.52;100.00
39891;BME280;25564;53.312;9.790;2023-03-21T10:22:49;100647.78;;;11.37;100.00
39891;BME280;25564;53.312;9.790;2023-03-21T10:25:27;100586.66;;;10.97;100.00
39891;BME280;25564;53.312;9.790;2023-03-21T10:28:01;100645.31;;;11.28;100.00
39891;BME280;25564;53.312;9.790;2023-03-21T10:30:50;100621.69;;;11.14;100.00
39891;BME280;25564;53.312;9.790;2023-03-21T10:33:25;100630.44;;;11.20;100.00
39891;BME280;25564;53.312;9.790;2023-03-21T10:36:00;100640.09;;;11.24;100.00
39891;BME280;25564;53.312;9.790;2023-03-21T10:38:33;100624.28;;;11.18;100.00
39891;BME280;25564;53.312;9.790;2023-03-21T10:41:06;100648.66;;;11.38;100.00
39891;BME280;25564;53.312;9.790;2023-03-21T10:43:40;100651.06;;;11.47;100.00
39891;BME280;25564;53.312;9.790;2023-03-21T10:46:17;100596.56;;;11.31;100.00
39891;BME280;25564;53.312;9.790;2023-03-21T10:48:52;100615.78;;;11.42;100.00
39891;BME280;25564;53.312;9.790;2023-03-21T10:51:30;100569.50;;;11.13;100.00
39891;BME280;25564;53.312;9.790;2023-03-21T10:54:06;100553.53;;;11.15;100.00
39891;BME280;25564;53.312;9.790;2023-03-21T10:57:12;100618.25;;;11.50;100.00
39891;BME280;25564;53.312;9.790;2023-03-21T10:59:57;100641.03;;;11.60;100.00
39891;BME280;25564;53.312;9.790;2023-03-21T11:02:32;100567.41;;;11.28;100.00
39891;BME280;25564;53.312;9.790;2023-03-21T11:05:07;100552.28;;;11.31;100.00
39891;BME280;25564;53.312;9.790;2023-03-21T11:08:04;100620.38;;;11.72;100.00
39891;BME280;25564;53.312;9.790;2023-03-21T11:11:09;100623.50;;;11.91;100.00
39891;BME280;25564;53.312;9.790;2023-03-21T11:13:41;100613.94;;;11.83;100.00
39891;BME280;25564;53.312;9.790;2023-03-21T11:16:24;100622.44;;;11.98;100.00
39891;BME280;25564;53.312;9.790;2023-03-21T11:19:10;100583.25;;;12.05;100.00
39891;BME280;25564;53.312;9.790;2023-03-21T11:21:43;100623.59;;;12.55;100.00
39891;BME280;25564;53.312;9.790;2023-03-21T11:24:17;100597.53;;;12.66;100.00
39891;BME280;25564;53.312;9.790;2023-03-21T11:26:49;100561.09;;;12.68;100.00
39891;BME280;25564;53.312;9.790;2023-03-21T11:29:45;100616.53;;;13.16;100.00
39891;BME280;25564;53.312;9.790;2023-03-21T11:32:24;100585.28;;;12.91;100.00
39891;BME280;25564;53.312;9.790;2023-03-21T11:35:20;100613.31;;;13.04;100.00
39891;BME280;25564;53.312;9.790;2023-03-21T11:37:54;100578.56;;;12.78;100.00
39891;BME280;25564;53.312;9.790;2023-03-21T11:40:34;100579.31;;;12.83;100.00
39891;BME280;25564;53.312;9.790;2023-03-21T11:46:04;100538.31;;;12.58;100.00
39891;BME280;25564;53.312;9.790;2023-03-21T11:48:44;100614.50;;;12.94;100.00
39891;BME280;25564;53.312;9.790;2023-03-21T11:51:24;100597.84;;;12.86;100.00
39891;BME280;25564;53.312;9.790;2023-03-21T11:57:51;100594.75;;;13.01;100.00
39891;BME280;25564;53.312;9.790;2023-03-21T12:00:50;100593.03;;;12.99;100.00
39891;BME280;25564;53.312;9.790;2023-03-21T12:06:40;100541.91;;;12.57;100.00
39891;BME280;25564;53.312;9.790;2023-03-21T12:09:25;100592.69;;;12.80;100.00
39891;BME280;25564;53.312;9.790;2023-03-21T12:12:08;100594.63;;;12.75;100.00
39891;BME280;25564;53.312;9.790;2023-03-21T12:15:18;100505.69;;;12.20;100.00
39891;BME280;25564;53.312;9.790;2023-03-21T12:18:28;100591.38;;;12.64;100.00
39891;BME280;25564;53.312;9.790;2023-03-21T12:21:05;100583.13;;;12.43;100.00
39891;BME280;25564;53.312;9.790;2023-03-21T12:30:10;100579.81;;;12.34;100.00
39891;BME280;25564;53.312;9.790;2023-03-21T12:33:03;100584.94;;;12.41;100.00
39891;BME280;25564;53.312;9.790;2023-03-21T12:38:52;100531.63;;;12.44;100.00
39891;BME280;25564;53.312;9.790;2023-03-21T12:41:50;100524.34;;;12.50;100.00
39891;BME280;25564;53.312;9.790;2023-03-21T12:44:26;100526.09;;;12.51;100.00
39891;BME280;25564;53.312;9.790;2023-03-21T12:47:03;100513.84;;;12.47;100.00
39891;BME280;25564;53.312;9.790;2023-03-21T12:49:42;100559.44;;;12.64;100.00
39891;BME280;25564;53.312;9.790;2023-03-21T12:54:52;100547.03;;;12.33;100.00
39891;BME280;25564;53.312;9.790;2023-03-21T12:57:29;100536.63;;;12.24;100.00
39891;BME280;25564;53.312;9.790;2023-03-21T13:00:09;100513.50;;;11.94;100.00
39891;BME280;25564;53.312;9.790;2023-03-21T13:02:52;100476.88;;;11.69;100.00
39891;BME280;25564;53.312;9.790;2023-03-21T13:05:32;100549.38;;;12.11;100.00
39891;BME280;25564;53.312;9.790;2023-03-21T13:08:14;100537.78;;;12.14;100.00
39891;BME280;25564;53.312;9.790;2023-03-21T13:10:46;100536.84;;;12.17;100.00
39891;BME280;25564;53.312;9.790;2023-03-21T13:13:34;100543.38;;;12.37;100.00
39891;BME280;25564;53.312;9.790;2023-03-21T13:16:27;100536.66;;;12.54;100.00
39891;BME280;25564;53.312;9.790;2023-03-21T13:19:12;100510.25;;;12.48;100.00
39891;BME280;25564;53.312;9.790;2023-03-21T13:22:06;100522.16;;;12.64;100.00
39891;BME280;25564;53.312;9.790;2023-03-21T13:29:53;100514.75;;;12.46;100.00
39891;BME280;25564;53.312;9.790;2023-03-21T13:32:43;100440.53;;;12.04;100.00
39891;BME280;25564;53.312;9.790;2023-03-21T13:35:22;100509.22;;;12.52;100.00
39891;BME280;25564;53.312;9.790;2023-03-21T13:38:03;100521.47;;;12.57;100.00
39891;BME280;25564;53.312;9.790;2023-03-21T13:43:39;100481.38;;;12.34;100.00
39891;BME280;25564;53.312;9.790;2023-03-21T13:51:51;100496.38;;;12.36;100.00
39891;BME280;25564;53.312;9.790;2023-03-21T13:57:05;100442.63;;;12.24;100.00
39891;BME280;25564;53.312;9.790;2023-03-21T14:04:43;100473.91;;;12.16;100.00
39891;BME280;25564;53.312;9.790;2023-03-21T14:07:40;100474.16;;;12.06;100.00
39891;BME280;25564;53.312;9.790;2023-03-21T14:10:18;100467.13;;;12.04;100.00
39891;BME280;25564;53.312;9.790;2023-03-21T14:12:51;100449.69;;;11.94;100.00
39891;BME280;25564;53.312;9.790;2023-03-21T14:15:28;100472.38;;;12.07;100.00
39891;BME280;25564;53.312;9.790;2023-03-21T14:18:01;100450.66;;;11.91;100.00
39891;BME280;25564;53.312;9.790;2023-03-21T14:20:56;100417.41;;;11.73;100.00
39891;BME280;25564;53.312;9.790;2023-03-21T14:23:28;100472.63;;;11.98;100.00
39891;BME280;25564;53.312;9.790;2023-03-21T14:25:59;100477.94;;;11.98;100.00
39891;BME280;25564;53.312;9.790;2023-03-21T14:28:32;100426.25;;;11.74;100.00
39891;BME280;25564;53.312;9.790;2023-03-21T14:31:03;100453.31;;;11.91;100.00
39891;BME280;25564;53.312;9.790;2023-03-21T14:33:37;100421.81;;;11.74;100.00
39891;BME280;25564;53.312;9.790;2023-03-21T14:36:18;100451.34;;;11.98;100.00
39891;BME280;25564;53.312;9.790;2023-03-21T14:39:05;100419.84;;;11.83;100.00
39891;BME280;25564;53.312;9.790;2023-03-21T14:41:50;100375.25;;;11.60;100.00